createdAt,value
2018-02-21T00:01:36.053Z,101506
2018-02-21T00:06:40.039Z,101516
2018-02-21T00:11:43.605Z,101534
2018-02-21T00:16:47.468Z,101534
2018-02-21T00:21:52.221Z,101521
2018-02-21T00:26:55.727Z,101522
2018-02-21T00:31:59.085Z,101533
2018-02-21T00:37:03.478Z,101529
2018-02-21T00:42:07.713Z,101533
2018-02-21T00:47:10.933Z,101539
2018-02-21T00:52:14.881Z,101541
2018-02-21T00:57:18.095Z,101544
2018-02-21T01:02:21.278Z,101535
2018-02-21T01:07:24.453Z,101543
2018-02-21T01:12:29.023Z,101555
2018-02-21T01:17:36.937Z,101570
2018-02-21T01:22:41.263Z,101575
2018-02-21T01:27:45.160Z,101581
2018-02-21T01:32:49.227Z,101586
2018-02-21T01:37:53.439Z,101583
2018-02-21T01:42:56.556Z,101591
2018-02-21T01:48:00.521Z,101591
2018-02-21T01:53:05.014Z,101593
2018-02-21T01:58:08.475Z,101590
2018-02-21T02:03:12.225Z,101579
2018-02-21T02:08:15.713Z,101582
2018-02-21T02:13:20.077Z,101590
2018-02-21T02:18:23.180Z,101573
2018-02-21T02:23:26.284Z,101550
2018-02-21T02:28:29.418Z,101545
2018-02-21T02:33:32.517Z,101555
2018-02-21T02:38:41.370Z,101557
2018-02-21T02:43:45.613Z,101578
2018-02-21T02:48:48.702Z,101584
2018-02-21T02:53:51.792Z,101576
2018-02-21T02:58:55.650Z,101573
2018-02-21T03:03:58.740Z,101574
2018-02-21T03:09:04.359Z,101555
2018-02-21T03:14:08.103Z,101549
2018-02-21T03:19:11.310Z,101548
2018-02-21T03:24:14.444Z,101555
2018-02-21T03:29:18.082Z,101560
2018-02-21T03:34:21.279Z,101575
2018-02-21T03:39:24.769Z,101583
2018-02-21T03:44:27.894Z,101587
2018-02-21T03:49:32.335Z,101609
2018-02-21T03:54:35.448Z,101612
2018-02-21T03:59:38.936Z,101633
2018-02-21T04:04:42.819Z,101626
2018-02-21T04:09:47.248Z,101619
2018-02-21T04:14:50.740Z,101630
2018-02-21T04:19:53.837Z,101646
2018-02-21T04:24:56.928Z,101652
2018-02-21T04:30:00.432Z,101666
2018-02-21T04:35:03.536Z,101663
2018-02-21T04:40:06.632Z,101670
2018-02-21T04:45:11.092Z,101679
2018-02-21T04:50:15.539Z,101677
2018-02-21T05:00:56.956Z,101685
2018-02-21T05:06:00.437Z,101679
2018-02-21T05:11:04.900Z,101670
2018-02-21T05:16:09.093Z,101665
2018-02-21T05:21:12.594Z,101670
2018-02-21T05:26:17.025Z,101672
2018-02-21T05:31:20.892Z,101669
2018-02-21T05:36:25.891Z,101676
2018-02-21T05:41:29.006Z,101676
2018-02-21T05:46:33.754Z,101678
2018-02-21T05:51:38.172Z,101668
2018-02-21T05:56:41.376Z,101671
2018-02-21T06:01:47.877Z,101668
2018-02-21T06:06:51.069Z,101663
2018-02-21T06:11:55.910Z,101663
2018-02-21T06:17:00.152Z,101670
2018-02-21T06:22:03.478Z,101670
2018-02-21T06:27:07.526Z,101662
2018-02-21T06:32:11.412Z,101671
2018-02-21T06:37:15.813Z,101685
2018-02-21T06:42:19.260Z,101686
2018-02-21T06:47:22.791Z,101685
2018-02-21T06:52:26.364Z,101684
2018-02-21T06:57:29.480Z,101690
2018-02-21T07:02:35.349Z,101693
2018-02-21T07:07:38.447Z,101701
2018-02-21T07:12:41.631Z,101715
2018-02-21T07:17:46.282Z,101721
2018-02-21T07:22:50.206Z,101725
2018-02-21T07:27:53.667Z,101718
2018-02-21T07:32:58.568Z,101730
2018-02-21T07:38:03.507Z,101739
2018-02-21T07:43:07.476Z,101739
2018-02-21T07:48:10.575Z,101747
2018-02-21T07:53:13.672Z,101755
2018-02-21T07:58:17.782Z,101760
2018-02-21T08:03:23.226Z,101762
2018-02-21T08:08:27.384Z,101768
2018-02-21T08:13:30.492Z,101762
2018-02-21T08:18:33.576Z,101766
2018-02-21T08:23:38.062Z,101759
2018-02-21T08:28:41.139Z,101754
2018-02-21T08:33:44.252Z,101754
2018-02-21T08:38:48.593Z,101742
2018-02-21T08:43:52.504Z,101736
2018-02-21T08:48:56.023Z,101730
2018-02-21T08:54:03.600Z,101723
2018-02-21T08:59:08.380Z,101736
2018-02-21T09:04:11.481Z,101736
2018-02-21T09:09:14.977Z,101742
2018-02-21T09:14:18.554Z,101741
2018-02-21T09:19:23.054Z,101734
2018-02-21T09:24:26.912Z,101734
2018-02-21T09:29:30.390Z,101730
2018-02-21T09:34:34.623Z,101723
2018-02-21T09:39:39.148Z,101727
2018-02-21T09:44:43.390Z,101726
2018-02-21T09:49:47.829Z,101719
2018-02-21T09:54:51.683Z,101719
2018-02-21T09:59:55.703Z,101716
2018-02-21T10:04:58.805Z,101718
2018-02-21T10:10:01.955Z,101718
2018-02-21T10:15:05.174Z,101721
2018-02-21T10:20:08.229Z,101715
2018-02-21T10:25:13.184Z,101719
2018-02-21T10:30:16.679Z,101723
2018-02-21T10:35:20.200Z,101721
2018-02-21T10:40:24.058Z,101717
2018-02-21T10:45:28.663Z,101714
2018-02-21T10:50:32.524Z,101713
2018-02-21T10:55:36.960Z,101707
2018-02-21T11:00:46.350Z,101702
2018-02-21T11:05:49.824Z,101701
2018-02-21T11:10:53.878Z,101701
2018-02-21T11:15:57.719Z,101693
2018-02-21T11:21:02.163Z,101691
2018-02-21T11:26:05.693Z,101687
2018-02-21T11:31:08.784Z,101690
2018-02-21T11:36:11.873Z,101692
2018-02-21T11:41:16.310Z,101684
2018-02-21T11:46:20.163Z,101674
2018-02-21T11:51:24.031Z,101670
2018-02-21T11:56:27.117Z,101662
2018-02-21T12:01:31.568Z,101664
2018-02-21T12:06:35.415Z,101663
2018-02-21T12:11:39.835Z,101654
2018-02-21T12:16:44.258Z,101650
2018-02-21T12:21:48.695Z,101641
2018-02-21T12:26:52.558Z,101651
2018-02-21T12:31:55.661Z,101641
2018-02-21T12:36:59.964Z,101637
2018-02-21T12:42:04.390Z,101636
2018-02-21T12:47:08.992Z,101635
2018-02-21T12:52:13.281Z,101622
2018-02-21T12:57:17.147Z,101617
2018-02-21T13:02:20.232Z,101611
2018-02-21T13:07:23.740Z,101615
2018-02-21T13:12:28.181Z,101596
2018-02-21T13:17:32.860Z,101599
2018-02-21T13:22:37.316Z,101595
2018-02-21T13:27:40.419Z,101574
2018-02-21T13:32:43.511Z,101569
2018-02-21T13:37:47.357Z,101571
2018-02-21T13:42:50.432Z,101564
2018-02-21T13:47:54.299Z,101562
2018-02-21T13:52:59.439Z,101554
2018-02-21T13:58:02.916Z,101548
2018-02-21T14:03:05.993Z,101538
2018-02-21T14:08:10.424Z,101524
2018-02-21T14:13:13.853Z,101515
2018-02-21T14:18:17.352Z,101516
2018-02-21T14:23:20.416Z,101518
2018-02-21T14:28:23.496Z,101513
2018-02-21T14:33:27.947Z,101511
2018-02-21T14:38:31.849Z,101501
2018-02-21T14:43:35.748Z,101491
2018-02-21T14:48:40.203Z,101493
2018-02-21T14:53:43.336Z,101488
2018-02-21T14:58:47.556Z,101496
2018-02-21T15:03:51.472Z,101491
2018-02-21T15:08:55.356Z,101489
2018-02-21T15:13:59.605Z,101487
2018-02-21T15:19:03.093Z,101486
2018-02-21T15:24:06.192Z,101493
2018-02-21T15:29:09.684Z,101491
2018-02-21T15:34:13.248Z,101492
2018-02-21T15:39:16.284Z,101488
2018-02-21T15:44:20.581Z,101491
2018-02-21T15:49:24.432Z,101494
2018-02-21T15:54:28.883Z,101489
2018-02-21T15:59:32.772Z,101492
2018-02-21T16:04:35.864Z,101500
2018-02-21T16:09:39.708Z,101502
2018-02-21T16:14:43.182Z,101509
2018-02-21T16:19:47.794Z,101509
2018-02-21T16:24:50.881Z,101513
2018-02-21T16:29:53.983Z,101513
2018-02-21T16:34:57.309Z,101509
2018-02-21T16:40:01.748Z,101510
2018-02-21T16:45:04.859Z,101513
2018-02-21T16:50:07.948Z,101519
2018-02-21T16:55:11.041Z,101512
2018-02-21T17:00:14.147Z,101522
2018-02-21T17:05:18.041Z,101528
2018-02-21T17:10:21.168Z,101532
2018-02-21T17:15:24.297Z,101534
2018-02-21T17:20:28.722Z,101536
2018-02-21T17:25:33.307Z,101538
2018-02-21T17:30:36.402Z,101544
2018-02-21T17:35:40.616Z,101543
2018-02-21T17:40:49.311Z,101548
2018-02-21T17:45:52.818Z,101548
2018-02-21T17:50:55.918Z,101550
2018-02-21T17:56:00.164Z,101549
2018-02-21T18:01:03.261Z,101551
2018-02-21T18:06:08.000Z,101556
2018-02-21T18:11:12.458Z,101563
2018-02-21T18:16:15.559Z,101565
2018-02-21T18:21:24.273Z,101565
2018-02-21T18:26:27.743Z,101564
2018-02-21T18:31:32.371Z,101563
2018-02-21T18:36:35.481Z,101574
2018-02-21T18:41:38.965Z,101574
2018-02-21T18:46:43.598Z,101579
2018-02-21T18:51:46.672Z,101581
2018-02-21T18:56:50.187Z,101578
2018-02-21T19:01:53.703Z,101583
2018-02-21T19:06:58.288Z,101581
2018-02-21T19:12:02.530Z,101587
2018-02-21T19:17:05.613Z,101592
2018-02-21T19:22:10.193Z,101588
2018-02-21T19:27:14.779Z,101590
2018-02-21T19:32:19.389Z,101598
2018-02-21T19:37:24.688Z,101584
2018-02-21T19:42:29.628Z,101592
2018-02-21T19:47:34.811Z,101595
2018-02-21T19:52:40.259Z,101593
2018-02-21T19:57:44.792Z,101599
2018-02-21T20:02:49.244Z,101599
2018-02-21T20:07:53.701Z,101605
2018-02-21T20:12:57.201Z,101599
2018-02-21T20:18:00.682Z,101608
2018-02-21T20:23:03.796Z,101608
2018-02-21T20:28:07.264Z,101606
2018-02-21T20:33:11.733Z,101614
2018-02-21T20:38:14.894Z,101620
2018-02-21T20:43:19.468Z,101612
2018-02-21T20:48:23.687Z,101615
2018-02-21T20:53:26.776Z,101619
2018-02-21T20:58:31.222Z,101626
2018-02-21T21:03:34.808Z,101625
2018-02-21T21:08:39.247Z,101630
2018-02-21T21:13:42.724Z,101632
2018-02-21T21:18:46.951Z,101633
2018-02-21T21:23:50.804Z,101638
2018-02-21T21:28:54.653Z,101645
2018-02-21T21:33:59.087Z,101635
2018-02-21T21:39:03.559Z,101636
2018-02-21T21:44:07.411Z,101629
2018-02-21T21:49:10.892Z,101635
2018-02-21T21:54:14.961Z,101641
2018-02-21T21:59:19.587Z,101641
2018-02-21T22:04:23.400Z,101639
2018-02-21T22:09:26.496Z,101645
2018-02-21T22:14:30.955Z,101644
2018-02-21T22:19:34.057Z,101646
2018-02-21T22:24:37.539Z,101657
2018-02-21T22:29:41.032Z,101651
2018-02-21T22:34:44.896Z,101651
2018-02-21T22:39:49.126Z,101647
2018-02-21T22:44:52.215Z,101653
2018-02-21T22:49:55.309Z,101654
2018-02-21T22:54:59.173Z,101657
2018-02-21T23:00:02.488Z,101664
2018-02-21T23:05:07.080Z,101661
2018-02-21T23:10:11.520Z,101660
2018-02-21T23:15:15.959Z,101663
2018-02-21T23:20:19.439Z,101668
2018-02-21T23:25:23.299Z,101663
2018-02-21T23:30:27.957Z,101660
2018-02-21T23:35:31.517Z,101667
2018-02-21T23:40:35.630Z,101661
2018-02-21T23:45:39.479Z,101655
2018-02-21T23:50:42.585Z,101652
2018-02-21T23:55:46.064Z,101648
